Time;durP1;ratioP1;P1;durP2;ratioP2;P2;SDS_P1;SDS_P2;PMS_P1;PMS_P2;Temp;Humidity;BMP_temperature;BMP_pressure;BME280_temperature;BME280_humidity;BME280_pressure;Samples;Min_cycle;Max_cycle;Signal;HPM_P1;HPM_P2
2023/09/28 00:02:22;;;;;;;5.47;5.13;;;13.70;99.90;;;;;;4920711;29;20209;-58
2023/09/28 00:04:49;;;;;;;5.53;5.07;;;13.60;99.90;;;;;;4915339;29;20228;-58
2023/09/28 00:07:16;;;;;;;5.17;4.77;;;13.70;99.90;;;;;;4919083;29;20324;-58
2023/09/28 00:09:44;;;;;;;5.57;5.17;;;13.70;99.90;;;;;;4933354;29;20574;-57
2023/09/28 00:12:10;;;;;;;5.97;5.47;;;13.70;99.90;;;;;;4933152;29;20233;-57
2023/09/28 00:14:37;;;;;;;5.67;5.13;;;13.60;99.90;;;;;;4934197;29;20201;-57
2023/09/28 00:17:04;;;;;;;5.47;4.97;;;13.60;99.90;;;;;;4932214;29;20367;-58
2023/09/28 00:19:31;;;;;;;4.90;4.50;;;13.50;99.90;;;;;;4919814;29;20198;-57
2023/09/28 00:21:57;;;;;;;5.87;5.37;;;13.50;99.90;;;;;;4932781;29;20653;-57
2023/09/28 00:24:24;;;;;;;4.90;4.50;;;13.40;99.90;;;;;;4934509;29;20309;-57
2023/09/28 00:26:52;;;;;;;7.33;5.97;;;13.30;99.90;;;;;;4934668;29;20345;-57
2023/09/28 00:29:19;;;;;;;6.33;5.63;;;13.30;99.90;;;;;;4934678;29;20221;-57
2023/09/28 00:31:45;;;;;;;5.27;4.87;;;13.30;99.90;;;;;;4933361;29;20206;-57
2023/09/28 00:34:12;;;;;;;5.57;5.17;;;13.20;99.90;;;;;;4933129;29;20757;-57
2023/09/28 00:36:38;;;;;;;5.93;5.30;;;13.20;99.90;;;;;;4926864;29;20276;-57
2023/09/28 00:39:07;;;;;;;5.13;4.73;;;13.20;99.90;;;;;;4915409;29;20210;-57
2023/09/28 00:41:33;;;;;;;5.07;4.67;;;13.30;99.90;;;;;;4914986;29;20297;-57
2023/09/28 00:44:01;;;;;;;5.13;4.83;;;13.30;99.90;;;;;;4915431;29;20253;-57
2023/09/28 00:46:32;;;;;;;5.33;4.93;;;13.20;99.90;;;;;;4926342;29;20213;-57
2023/09/28 00:49:02;;;;;;;8.17;5.70;;;13.20;99.90;;;;;;4925791;29;20206;-57
2023/09/28 00:51:31;;;;;;;5.67;5.13;;;13.20;99.90;;;;;;4938908;29;20202;-58
2023/09/28 00:54:01;;;;;;;6.47;5.97;;;13.20;99.90;;;;;;4916547;29;20258;-57
2023/09/28 00:56:29;;;;;;;6.80;6.10;;;13.30;99.90;;;;;;4915287;29;20630;-58
2023/09/28 00:58:56;;;;;;;6.67;6.00;;;13.30;99.90;;;;;;4927086;29;20216;-57
2023/09/28 01:01:29;;;;;;;6.73;5.63;;;13.30;99.90;;;;;;4920493;29;20706;-57
2023/09/28 01:03:56;;;;;;;6.20;5.70;;;13.40;99.90;;;;;;4915024;29;20680;-57
2023/09/28 01:06:24;;;;;;;8.70;6.37;;;13.40;99.90;;;;;;4925986;29;20523;-57
2023/09/28 01:08:50;;;;;;;6.33;5.93;;;13.30;99.90;;;;;;4935642;28;20662;-58
2023/09/28 01:11:20;;;;;;;5.07;4.77;;;13.30;99.90;;;;;;4932493;29;20225;-57
2023/09/28 01:13:46;;;;;;;5.20;4.80;;;13.30;99.90;;;;;;4933589;29;20268;-58
2023/09/28 01:16:13;;;;;;;7.37;6.20;;;13.30;99.90;;;;;;4933939;29;20627;-57
2023/09/28 01:18:41;;;;;;;7.67;5.53;;;13.30;99.90;;;;;;4933616;29;20240;-58
2023/09/28 01:21:10;;;;;;;6.53;5.93;;;13.30;99.90;;;;;;4933359;29;20201;-57
2023/09/28 01:23:38;;;;;;;6.83;6.30;;;13.30;99.90;;;;;;4930441;29;20214;-57
2023/09/28 01:26:06;;;;;;;7.97;6.47;;;13.30;99.90;;;;;;4929348;29;20309;-58
2023/09/28 01:28:32;;;;;;;6.73;6.00;;;13.20;99.90;;;;;;4913017;29;20230;-58
2023/09/28 01:30:59;;;;;;;5.97;5.37;;;13.20;99.90;;;;;;4930072;29;20221;-57
2023/09/28 01:33:26;;;;;;;5.40;4.90;;;13.20;99.90;;;;;;4919704;29;20203;-57
2023/09/28 01:35:54;;;;;;;6.37;5.77;;;13.20;99.90;;;;;;4923705;29;20244;-57
2023/09/28 01:38:39;;;;;;;5.80;5.23;;;13.20;99.90;;;;;;4929208;29;20770;-58
2023/09/28 01:41:07;;;;;;;5.03;4.63;;;13.20;99.90;;;;;;4936728;29;20252;-57
2023/09/28 01:43:32;;;;;;;4.53;4.23;;;13.20;99.90;;;;;;4932772;29;20650;-57
2023/09/28 01:45:59;;;;;;;5.03;4.63;;;13.10;99.90;;;;;;4937140;29;20284;-57
2023/09/28 01:48:25;;;;;;;5.87;5.40;;;13.20;99.90;;;;;;4935919;29;20687;-58
2023/09/28 01:50:52;;;;;;;5.67;5.27;;;13.20;99.90;;;;;;4935197;29;20201;-57
2023/09/28 01:53:18;;;;;;;5.10;4.60;;;13.20;99.90;;;;;;4917902;29;20719;-57
2023/09/28 01:55:48;;;;;;;5.03;4.63;;;13.20;99.90;;;;;;4922144;29;20217;-57
2023/09/28 01:58:14;;;;;;;4.30;3.90;;;13.20;99.90;;;;;;4932702;29;20228;-57
2023/09/28 02:00:44;;;;;;;4.27;3.97;;;13.10;99.90;;;;;;4921318;29;20547;-57
2023/09/28 02:03:10;;;;;;;4.23;3.80;;;13.10;99.90;;;;;;4935615;29;20260;-58
2023/09/28 02:05:38;;;;;;;4.53;4.13;;;13.10;99.90;;;;;;4921603;29;20222;-57
2023/09/28 02:08:05;;;;;;;4.77;4.10;;;13.10;99.90;;;;;;4917497;29;20226;-57
2023/09/28 02:10:33;;;;;;;4.73;4.37;;;13.10;99.90;;;;;;4917375;29;20206;-57
2023/09/28 02:13:00;;;;;;;5.40;3.53;;;13.10;99.90;;;;;;4923213;29;20214;-57
2023/09/28 02:15:27;;;;;;;4.73;4.33;;;13.00;99.90;;;;;;4936462;29;20201;-57
2023/09/28 02:17:53;;;;;;;4.20;3.90;;;13.00;99.90;;;;;;4918213;29;20314;-58
2023/09/28 02:20:22;;;;;;;4.70;4.37;;;13.00;99.90;;;;;;4917367;29;20679;-57
2023/09/28 02:22:52;;;;;;;4.83;4.43;;;12.90;99.90;;;;;;4916383;29;20583;-57
2023/09/28 02:25:21;;;;;;;5.53;5.03;;;12.80;99.90;;;;;;4918151;29;20234;-58
2023/09/28 02:27:48;;;;;;;4.03;3.73;;;12.80;99.90;;;;;;4934988;29;20285;-57
2023/09/28 02:30:19;;;;;;;4.30;4.00;;;12.80;99.90;;;;;;4936781;29;20198;-57
2023/09/28 02:32:45;;;;;;;4.57;4.13;;;12.80;99.90;;;;;;4927988;29;20288;-57
2023/09/28 02:35:14;;;;;;;3.73;3.53;;;12.80;99.90;;;;;;4936304;29;20258;-58
2023/09/28 02:37:41;;;;;;;4.00;3.40;;;12.80;99.90;;;;;;4934582;29;20715;-57
2023/09/28 02:40:09;;;;;;;4.00;3.70;;;12.80;99.90;;;;;;4935333;29;20201;-58
2023/09/28 02:42:35;;;;;;;4.60;4.20;;;12.80;99.90;;;;;;4928003;29;20289;-58
2023/09/28 02:45:09;;;;;;;4.37;4.03;;;12.80;99.90;;;;;;4935972;29;20226;-57
2023/09/28 02:47:36;;;;;;;4.13;3.83;;;12.80;99.90;;;;;;4936061;29;20253;-57
2023/09/28 02:50:06;;;;;;;4.80;4.40;;;12.70;99.90;;;;;;4935556;29;20206;-57
2023/09/28 02:52:32;;;;;;;5.20;4.80;;;12.70;99.90;;;;;;4938151;29;20292;-57
2023/09/28 02:54:59;;;;;;;3.77;3.47;;;12.70;99.90;;;;;;4929274;29;20194;-58
2023/09/28 02:57:25;;;;;;;4.80;4.40;;;12.70;99.90;;;;;;4935986;29;20233;-57
2023/09/28 02:59:53;;;;;;;2.87;2.73;;;12.70;99.90;;;;;;4935954;29;20254;-58
2023/09/28 03:02:19;;;;;;;4.47;3.93;;;12.70;99.90;;;;;;4935809;29;20210;-58
2023/09/28 03:04:48;;;;;;;4.00;3.60;;;12.70;99.90;;;;;;4934601;29;20229;-57
2023/09/28 03:07:14;;;;;;;4.93;4.27;;;12.70;99.90;;;;;;4923768;29;20774;-58
2023/09/28 03:09:41;;;;;;;4.40;3.97;;;12.80;99.90;;;;;;4925597;29;20202;-58
2023/09/28 03:12:07;;;;;;;4.17;3.70;;;12.80;99.90;;;;;;4927560;29;20265;-57
2023/09/28 03:14:34;;;;;;;4.10;3.77;;;12.70;99.90;;;;;;4935733;29;20579;-57
2023/09/28 03:17:00;;;;;;;4.03;3.70;;;12.70;99.90;;;;;;4934575;29;20234;-57
2023/09/28 03:19:27;;;;;;;3.83;3.53;;;12.60;99.90;;;;;;4935564;29;20607;-57
2023/09/28 03:21:54;;;;;;;4.13;3.83;;;12.60;99.90;;;;;;4935132;29;20221;-57
2023/09/28 03:24:22;;;;;;;4.00;3.70;;;12.60;99.90;;;;;;4935583;29;20280;-57
2023/09/28 03:26:49;;;;;;;4.23;3.93;;;12.60;99.90;;;;;;4938489;29;20233;-57
2023/09/28 03:29:17;;;;;;;3.73;3.53;;;12.70;99.90;;;;;;4931017;29;20202;-57
2023/09/28 03:31:43;;;;;;;3.53;3.33;;;12.70;99.90;;;;;;4931906;29;20201;-57
2023/09/28 03:34:10;;;;;;;4.43;4.10;;;12.70;99.90;;;;;;4935536;29;20705;-57
2023/09/28 03:36:37;;;;;;;5.87;3.67;;;12.70;99.90;;;;;;4935393;29;20297;-57
2023/09/28 03:39:05;;;;;;;4.30;4.00;;;12.60;99.90;;;;;;4934133;29;20296;-57
2023/09/28 03:41:32;;;;;;;3.63;3.33;;;12.60;99.90;;;;;;4922955;29;20683;-57
2023/09/28 03:43:59;;;;;;;3.50;3.30;;;12.50;99.90;;;;;;4933297;29;20638;-57
2023/09/28 03:46:27;;;;;;;3.97;3.67;;;12.50;99.90;;;;;;4916102;29;20274;-57
2023/09/28 03:48:54;;;;;;;4.07;3.77;;;12.50;99.90;;;;;;4916400;29;20647;-57
2023/09/28 03:51:21;;;;;;;4.63;4.00;;;12.50;99.90;;;;;;4930014;29;20258;-57
2023/09/28 03:53:48;;;;;;;4.37;4.00;;;12.50;99.90;;;;;;4927108;29;20209;-57
2023/09/28 03:56:17;;;;;;;3.83;3.50;;;12.40;99.90;;;;;;4935766;29;20272;-57
2023/09/28 03:58:44;;;;;;;4.83;3.60;;;12.40;99.90;;;;;;4936637;29;20227;-58
2023/09/28 04:01:11;;;;;;;4.87;4.17;;;12.40;99.90;;;;;;4938681;29;20209;-57
2023/09/28 04:03:38;;;;;;;3.77;3.47;;;12.40;99.90;;;;;;4929249;29;20278;-57
2023/09/28 04:06:05;;;;;;;5.77;4.40;;;12.40;99.90;;;;;;4934033;29;20230;-58
2023/09/28 04:08:32;;;;;;;7.07;4.00;;;12.50;99.90;;;;;;4934603;29;20230;-57
2023/09/28 04:10:59;;;;;;;5.33;3.90;;;12.50;99.90;;;;;;4934145;29;20627;-57
2023/09/28 04:13:28;;;;;;;3.90;3.60;;;12.50;99.90;;;;;;4934548;29;20202;-57
2023/09/28 04:15:55;;;;;;;3.70;3.40;;;12.50;99.90;;;;;;4933801;29;20198;-57
2023/09/28 04:18:22;;;;;;;4.50;3.77;;;12.50;99.90;;;;;;4932622;29;20722;-58
2023/09/28 04:20:49;;;;;;;4.67;4.20;;;12.50;99.90;;;;;;4933124;29;20263;-57
2023/09/28 04:23:16;;;;;;;4.13;3.90;;;12.50;99.90;;;;;;4934273;29;20261;-58
2023/09/28 04:25:43;;;;;;;4.80;4.40;;;12.50;99.90;;;;;;4934272;29;20297;-58
2023/09/28 04:28:12;;;;;;;5.53;3.77;;;12.50;99.90;;;;;;4926574;29;20221;-57
2023/09/28 04:30:40;;;;;;;5.03;4.53;;;12.50;99.90;;;;;;4933902;29;20210;-57
2023/09/28 04:33:07;;;;;;;4.47;4.17;;;12.50;99.90;;;;;;4932065;29;20205;-57
2023/09/28 04:35:35;;;;;;;4.33;4.00;;;12.50;99.90;;;;;;4929488;29;20671;-57
2023/09/28 04:38:03;;;;;;;5.23;4.80;;;12.50;99.90;;;;;;4934037;29;20232;-57
2023/09/28 04:40:31;;;;;;;6.93;3.93;;;12.50;99.90;;;;;;4933900;29;20245;-57
2023/09/28 04:42:59;;;;;;;5.07;4.60;;;12.50;99.90;;;;;;4933929;29;20209;-57
2023/09/28 04:45:26;;;;;;;5.50;5.00;;;12.50;99.90;;;;;;4934258;29;20217;-58
2023/09/28 04:47:55;;;;;;;7.97;5.10;;;12.60;99.90;;;;;;4934351;29;20237;-57
2023/09/28 04:50:22;;;;;;;5.50;4.53;;;12.70;99.90;;;;;;4934226;29;20238;-58
2023/09/28 04:52:49;;;;;;;8.23;5.37;;;12.70;99.90;;;;;;4925544;29;20265;-57
2023/09/28 04:55:16;;;;;;;4.83;4.50;;;12.70;99.90;;;;;;4915173;29;20206;-57
2023/09/28 04:57:43;;;;;;;3.97;3.67;;;12.70;99.90;;;;;;4915244;29;20237;-58
2023/09/28 05:00:15;;;;;;;8.20;4.50;;;12.70;99.90;;;;;;4915210;29;20202;-58
2023/09/28 05:02:43;;;;;;;4.70;4.30;;;12.70;99.90;;;;;;4914760;29;20214;-58
2023/09/28 05:05:12;;;;;;;4.97;4.47;;;12.70;99.90;;;;;;4916899;29;20301;-58
2023/09/28 05:07:40;;;;;;;6.07;4.57;;;12.70;99.90;;;;;;4922814;29;20233;-58
2023/09/28 05:10:08;;;;;;;4.30;4.00;;;12.70;99.90;;;;;;4936535;29;20240;-58
2023/09/28 05:12:35;;;;;;;4.43;4.07;;;12.80;99.90;;;;;;4937458;29;20292;-58
2023/09/28 05:15:03;;;;;;;4.17;3.87;;;12.80;99.90;;;;;;4937651;29;20269;-58
2023/09/28 05:17:31;;;;;;;4.30;3.90;;;12.80;99.90;;;;;;4937346;29;20241;-58
2023/09/28 05:19:58;;;;;;;3.77;3.17;;;12.80;99.90;;;;;;4937783;29;20292;-58
2023/09/28 05:22:27;;;;;;;4.03;3.67;;;12.90;99.90;;;;;;4936746;29;20650;-58
2023/09/28 05:24:54;;;;;;;6.13;4.33;;;12.90;99.90;;;;;;4935470;29;20663;-58
2023/09/28 05:27:22;;;;;;;9.73;3.97;;;12.90;99.90;;;;;;4936833;29;20304;-58
2023/09/28 05:29:49;;;;;;;3.97;3.67;;;12.90;99.90;;;;;;4931968;29;20216;-58
2023/09/28 05:32:16;;;;;;;5.67;5.20;;;13.00;99.90;;;;;;4932846;29;20206;-58
2023/09/28 05:34:43;;;;;;;4.93;3.87;;;13.00;99.90;;;;;;4936586;29;20273;-58
2023/09/28 05:37:10;;;;;;;6.57;4.77;;;13.00;99.90;;;;;;4937115;29;20221;-58
2023/09/28 05:39:38;;;;;;;3.80;3.50;;;13.10;99.90;;;;;;4937099;29;20210;-58
2023/09/28 05:42:06;;;;;;;5.83;3.97;;;13.10;99.90;;;;;;4936249;29;20754;-58
2023/09/28 05:44:33;;;;;;;3.30;3.10;;;13.10;99.90;;;;;;4932774;29;20217;-58
2023/09/28 05:47:00;;;;;;;3.77;3.50;;;13.10;99.90;;;;;;4936865;29;20234;-58
2023/09/28 05:49:27;;;;;;;4.17;3.63;;;13.10;99.90;;;;;;4932964;29;20281;-58
2023/09/28 05:51:54;;;;;;;4.33;3.97;;;13.20;99.90;;;;;;4936369;29;20257;-57
2023/09/28 05:54:21;;;;;;;5.27;4.77;;;13.20;99.90;;;;;;4928981;29;20198;-58
2023/09/28 05:56:49;;;;;;;5.37;4.60;;;13.20;99.90;;;;;;4930975;29;20202;-58
2023/09/28 05:59:16;;;;;;;6.70;4.70;;;13.20;99.90;;;;;;4932625;29;20695;-58
2023/09/28 06:01:44;;;;;;;6.57;4.67;;;13.30;99.90;;;;;;4932845;29;20206;-58
2023/09/28 06:04:12;;;;;;;3.97;3.63;;;13.30;99.90;;;;;;4933101;29;20225;-58
2023/09/28 06:06:39;;;;;;;5.03;3.57;;;13.30;99.90;;;;;;4942429;29;20782;-58
2023/09/28 06:09:06;;;;;;;5.50;4.20;;;13.30;99.90;;;;;;4934201;29;20257;-58
2023/09/28 06:11:33;;;;;;;5.97;5.47;;;13.30;99.90;;;;;;4933737;29;20252;-58
2023/09/28 06:14:02;;;;;;;6.07;4.97;;;13.30;99.90;;;;;;4917926;29;20522;-58
2023/09/28 06:16:29;;;;;;;5.47;4.97;;;13.40;99.90;;;;;;4936228;29;20666;-58
2023/09/28 06:18:56;;;;;;;4.60;4.20;;;13.40;99.90;;;;;;4935362;29;20209;-58
2023/09/28 06:21:23;;;;;;;5.17;4.67;;;13.50;99.90;;;;;;4933775;29;20213;-58
2023/09/28 06:23:50;;;;;;;5.97;4.17;;;13.60;99.90;;;;;;4931676;29;20768;-58
2023/09/28 06:26:17;;;;;;;5.60;4.53;;;13.70;99.90;;;;;;4929280;29;20217;-58
2023/09/28 06:28:44;;;;;;;4.40;4.10;;;13.90;99.90;;;;;;4928447;29;20218;-60
2023/09/28 06:31:14;;;;;;;4.47;4.03;;;14.00;99.90;;;;;;4932276;29;20206;-61
2023/09/28 06:33:42;;;;;;;3.90;3.70;;;14.10;99.90;;;;;;4928521;29;20584;-67
2023/09/28 06:36:09;;;;;;;4.20;3.90;;;14.20;99.90;;;;;;4929756;29;20198;-59
2023/09/28 06:38:36;;;;;;;8.10;4.67;;;14.40;99.90;;;;;;4938329;29;20237;-67
2023/09/28 06:41:03;;;;;;;5.10;4.57;;;14.50;99.90;;;;;;4934881;29;20202;-66
2023/09/28 06:43:30;;;;;;;5.30;4.03;;;14.70;99.90;;;;;;4933430;29;20297;-66
2023/09/28 06:45:58;;;;;;;5.43;4.90;;;14.90;99.90;;;;;;4933560;29;20636;-66
2023/09/28 06:48:27;;;;;;;4.60;4.20;;;15.00;99.90;;;;;;4924116;29;20333;-66
2023/09/28 06:50:56;;;;;;;7.50;4.20;;;15.20;99.90;;;;;;4927049;29;20257;-66
2023/09/28 06:53:24;;;;;;;4.00;3.70;;;15.40;99.90;;;;;;4925752;29;20702;-69
2023/09/28 06:55:52;;;;;;;5.03;3.37;;;15.70;99.90;;;;;;4925233;29;20617;-58
2023/09/28 06:58:20;;;;;;;3.60;3.30;;;15.90;99.90;;;;;;4928305;29;20707;-59
2023/09/28 07:00:47;;;;;;;3.90;3.60;;;16.10;99.90;;;;;;4930242;29;20262;-58
2023/09/28 07:03:16;;;;;;;3.67;2.90;;;16.30;99.90;;;;;;4930666;29;20590;-59
2023/09/28 07:05:44;;;;;;;4.33;2.83;;;16.50;99.90;;;;;;4924374;29;20225;-59
2023/09/28 07:08:11;;;;;;;6.70;2.83;;;16.80;99.90;;;;;;4928462;29;20281;-59
2023/09/28 07:10:39;;;;;;;3.03;2.83;;;17.00;99.90;;;;;;4933683;29;20250;-58
2023/09/28 07:13:07;;;;;;;4.63;2.70;;;17.10;99.90;;;;;;4926159;29;20218;-59
2023/09/28 07:15:37;;;;;;;4.03;3.50;;;17.20;99.90;;;;;;4933970;29;20202;-59
2023/09/28 07:18:05;;;;;;;3.30;3.10;;;17.10;99.90;;;;;;4916717;29;20689;-59
2023/09/28 07:20:32;;;;;;;5.80;3.10;;;17.00;99.90;;;;;;4927968;29;20743;-59
2023/09/28 07:23:01;;;;;;;4.00;3.60;;;17.00;99.90;;;;;;4932577;29;20208;-59
2023/09/28 07:25:28;;;;;;;3.60;3.40;;;17.10;99.90;;;;;;4924172;29;20262;-59
2023/09/28 07:27:55;;;;;;;3.63;2.70;;;17.10;99.90;;;;;;4926448;29;20233;-59
2023/09/28 07:30:23;;;;;;;7.17;4.00;;;17.10;99.90;;;;;;4926223;29;20611;-59
2023/09/28 07:32:51;;;;;;;5.17;3.67;;;17.10;99.90;;;;;;4922173;29;20203;-59
2023/09/28 07:35:19;;;;;;;5.27;3.57;;;17.20;99.90;;;;;;4926937;29;20202;-59
2023/09/28 07:37:47;;;;;;;4.00;3.67;;;17.40;99.90;;;;;;4919708;29;20330;-58
2023/09/28 07:40:17;;;;;;;6.07;4.43;;;17.60;99.90;;;;;;4932905;29;20233;-59
2023/09/28 07:42:45;;;;;;;4.33;4.00;;;17.50;99.90;;;;;;4935623;29;20209;-59
2023/09/28 07:45:13;;;;;;;4.60;3.77;;;17.60;99.90;;;;;;4935142;29;20205;-59
2023/09/28 07:47:40;;;;;;;3.53;3.07;;;17.70;99.90;;;;;;4933629;29;20308;-59
2023/09/28 07:50:10;;;;;;;6.43;4.10;;;17.80;99.90;;;;;;4927229;29;20206;-59
2023/09/28 07:52:37;;;;;;;4.00;3.70;;;17.90;99.90;;;;;;4927935;29;20206;-59
2023/09/28 07:55:05;;;;;;;4.87;3.90;;;17.90;99.90;;;;;;4919054;29;20214;-58
2023/09/28 07:57:33;;;;;;;5.23;3.73;;;18.00;99.90;;;;;;4940074;29;20277;-59
2023/09/28 08:00:00;;;;;;;3.13;2.70;;;18.20;99.90;;;;;;4918422;29;20206;-59
2023/09/28 08:02:27;;;;;;;5.40;2.77;;;18.50;99.90;;;;;;4933979;29;20202;-59
2023/09/28 08:04:55;;;;;;;3.30;2.27;;;18.80;99.90;;;;;;4918091;29;20209;-59
2023/09/28 08:07:24;;;;;;;3.43;2.30;;;18.90;99.90;;;;;;4917854;29;20226;-59
2023/09/28 08:09:51;;;;;;;2.17;2.07;;;18.90;99.90;;;;;;4932419;29;20209;-59
2023/09/28 08:12:18;;;;;;;2.77;2.57;;;19.00;99.90;;;;;;4935609;29;20582;-59
2023/09/28 08:14:47;;;;;;;3.37;2.70;;;18.90;99.90;;;;;;4930505;29;20210;-59
2023/09/28 08:17:14;;;;;;;3.93;2.83;;;19.10;99.90;;;;;;4933989;29;20967;-58
2023/09/28 08:19:41;;;;;;;5.03;2.70;;;19.20;99.90;;;;;;4934466;29;20202;-59
2023/09/28 08:22:08;;;;;;;3.90;3.37;;;19.20;99.90;;;;;;4932802;29;20571;-59
2023/09/28 08:24:35;;;;;;;4.53;2.77;;;19.20;99.90;;;;;;4920329;29;20246;-59
2023/09/28 08:27:04;;;;;;;6.23;2.40;;;19.40;99.90;;;;;;4922076;29;20229;-59
2023/09/28 08:29:31;;;;;;;3.87;2.87;;;19.60;99.90;;;;;;4932632;29;20213;-59
2023/09/28 08:31:59;;;;;;;4.80;2.97;;;19.80;99.90;;;;;;4926343;29;20598;-59
2023/09/28 08:34:26;;;;;;;5.07;3.00;;;20.00;99.90;;;;;;4925283;29;20225;-58
2023/09/28 08:36:53;;;;;;;2.87;2.27;;;20.10;99.90;;;;;;4918717;29;20282;-59
2023/09/28 08:39:20;;;;;;;2.80;2.47;;;20.20;99.90;;;;;;4923903;29;20211;-59
2023/09/28 08:41:51;;;;;;;3.13;2.93;;;21.00;99.90;;;;;;4917528;29;20609;-59
2023/09/28 08:44:20;;;;;;;2.10;2.00;;;21.80;99.90;;;;;;4925419;29;20206;-59
2023/09/28 08:46:49;;;;;;;2.87;2.67;;;22.00;99.90;;;;;;4926234;29;20218;-59
2023/09/28 08:49:19;;;;;;;2.73;2.53;;;21.90;99.90;;;;;;4928885;29;20198;-59
2023/09/28 08:51:47;;;;;;;4.50;3.60;;;21.70;99.90;;;;;;4922042;29;20643;-59
2023/09/28 08:54:15;;;;;;;5.43;2.70;;;21.50;99.90;;;;;;4918872;29;20285;-59
2023/09/28 08:56:44;;;;;;;4.33;2.27;;;21.30;99.90;;;;;;4921655;29;20199;-59
2023/09/28 08:59:11;;;;;;;4.77;3.13;;;21.20;99.90;;;;;;4920806;29;20210;-59
2023/09/28 09:01:39;;;;;;;4.80;3.37;;;20.90;99.90;;;;;;4921443;29;20199;-59
2023/09/28 09:04:07;;;;;;;4.40;2.90;;;20.70;99.90;;;;;;4926778;29;20285;-59
2023/09/28 09:06:36;;;;;;;3.13;2.93;;;20.50;99.90;;;;;;4919303;29;20646;-59
2023/09/28 09:09:05;;;;;;;6.30;2.37;;;20.10;99.90;;;;;;4916749;29;20211;-59
2023/09/28 09:11:37;;;;;;;3.37;3.10;;;20.00;99.90;;;;;;4916952;29;20202;-59
2023/09/28 09:14:04;;;;;;;4.23;3.13;;;20.50;99.90;;;;;;4925841;29;20553;-59
2023/09/28 09:16:31;;;;;;;4.70;3.00;;;21.50;99.90;;;;;;4919754;29;20214;-59
2023/09/28 09:18:59;;;;;;;3.73;3.40;;;22.00;99.90;;;;;;4923637;29;20289;-59
2023/09/28 09:21:26;;;;;;;5.67;2.80;;;23.00;99.90;;;;;;4924786;29;20217;-59
2023/09/28 09:24:04;;;;;;;4.60;2.70;;;24.00;99.90;;;;;;4921540;29;20203;-59
2023/09/28 09:26:40;;;;;;;2.67;2.47;;;24.70;99.90;;;;;;4919225;29;20273;-59
2023/09/28 09:29:08;;;;;;;3.97;3.67;;;25.40;99.90;;;;;;4925712;29;20202;-59
2023/09/28 09:31:38;;;;;;;2.30;1.93;;;25.70;99.90;;;;;;4918990;29;20306;-59
2023/09/28 09:34:06;;;;;;;3.37;3.07;;;26.00;99.90;;;;;;4922064;29;20679;-60
2023/09/28 09:36:33;;;;;;;3.77;2.83;;;26.40;99.90;;;;;;4921838;29;20202;-59
2023/09/28 09:39:00;;;;;;;4.90;2.45;;;26.50;99.90;;;;;;4921131;29;20231;-60
2023/09/28 09:41:29;;;;;;;2.20;2.00;;;26.30;99.90;;;;;;4914189;29;20328;-59
2023/09/28 09:43:59;;;;;;;5.22;2.92;;;26.40;99.90;;;;;;4919839;29;20302;-60
2023/09/28 09:46:26;;;;;;;3.50;2.90;;;26.70;99.90;;;;;;4918772;29;20206;-59
2023/09/28 09:48:55;;;;;;;3.17;2.92;;;26.40;99.90;;;;;;4920445;29;20672;-60
2023/09/28 09:51:23;;;;;;;3.90;3.25;;;26.70;99.90;;;;;;4923644;29;20198;-59
2023/09/28 09:53:50;;;;;;;4.10;2.80;;;26.70;99.90;;;;;;4930834;29;20202;-59
2023/09/28 09:56:17;;;;;;;5.35;3.05;;;26.40;99.90;;;;;;4928904;29;20257;-59
2023/09/28 09:58:48;;;;;;;7.13;4.13;;;26.90;99.90;;;;;;4922668;29;20298;-59
2023/09/28 10:01:17;;;;;;;5.22;3.33;;;26.30;99.90;;;;;;4924509;29;20205;-59
2023/09/28 10:03:47;;;;;;;3.40;2.58;;;26.70;99.90;;;;;;4935671;29;20297;-60
2023/09/28 10:06:16;;;;;;;6.40;3.15;;;27.30;99.90;;;;;;4933678;29;20202;-60
2023/09/28 10:08:45;;;;;;;6.40;3.45;;;27.20;99.90;;;;;;4929900;29;20249;-59
2023/09/28 10:11:12;;;;;;;3.30;3.10;;;27.50;99.90;;;;;;4931123;29;20223;-59
2023/09/28 10:13:40;;;;;;;3.03;2.70;;;27.60;99.90;;;;;;4927797;29;20277;-59
2023/09/28 10:16:11;;;;;;;4.45;3.05;;;27.20;99.90;;;;;;4932762;29;20441;-59
2023/09/28 10:18:40;;;;;;;2.53;2.42;;;27.00;99.90;;;;;;4917250;29;20293;-69
2023/09/28 10:21:08;;;;;;;5.05;3.30;;;26.40;99.90;;;;;;4919981;29;20229;-70
2023/09/28 10:23:35;;;;;;;4.90;2.75;;;26.60;99.90;;;;;;4941050;29;20645;-69
2023/09/28 10:26:07;;;;;;;3.40;2.95;;;26.50;99.90;;;;;;4928652;29;20537;-69
2023/09/28 10:28:34;;;;;;;3.15;2.38;;;27.00;99.90;;;;;;4917319;29;20325;-69
2023/09/28 10:31:10;;;;;;;4.65;2.53;;;27.20;99.90;;;;;;4916631;29;20207;-70
2023/09/28 10:33:59;;;;;;;2.97;2.78;;;26.90;99.90;;;;;;4924627;29;20593;-71
2023/09/28 10:36:27;;;;;;;4.15;1.75;;;27.00;99.90;;;;;;4934878;29;20313;-60
2023/09/28 10:39:14;;;;;;;3.10;2.90;;;26.90;99.90;;;;;;4935994;29;20313;-60
2023/09/28 10:41:44;;;;;;;3.47;3.20;;;26.70;99.90;;;;;;4939066;29;20214;-60
2023/09/28 10:44:19;;;;;;;2.03;1.92;;;26.40;99.90;;;;;;4917493;29;20610;-60
2023/09/28 10:46:49;;;;;;;2.58;2.40;;;26.20;99.90;;;;;;4916504;29;20278;-60
2023/09/28 10:49:22;;;;;;;3.63;2.70;;;26.20;99.90;;;;;;4934449;29;20254;-60
2023/09/28 10:51:49;;;;;;;3.97;2.20;;;26.00;99.90;;;;;;4929854;29;20226;-60
2023/09/28 10:54:16;;;;;;;3.75;2.58;;;25.80;99.90;;;;;;4927598;29;20572;-60
2023/09/28 10:56:43;;;;;;;4.32;2.22;;;25.60;99.90;;;;;;4964261;23;20311;-56
2023/09/28 10:59:12;;;;;;;2.45;2.35;;;25.50;99.90;;;;;;4954112;29;20284;-60
2023/09/28 11:01:42;;;;;;;4.07;2.72;;;25.30;99.90;;;;;;4953662;29;20209;-60
2023/09/28 11:04:11;;;;;;;7.18;2.63;;;24.70;99.90;;;;;;4954130;29;20221;-59
2023/09/28 11:06:38;;;;;;;1.90;1.80;;;24.60;99.90;;;;;;4960288;28;20726;-59
2023/09/28 11:09:09;;;;;;;3.23;2.47;;;24.70;99.90;;;;;;4953807;29;20671;-58
2023/09/28 11:11:37;;;;;;;2.77;2.57;;;24.80;99.90;;;;;;4953681;29;20219;-58
2023/09/28 11:14:06;;;;;;;4.43;2.33;;;25.00;99.90;;;;;;4953952;29;20209;-58
2023/09/28 11:16:34;;;;;;;2.70;2.37;;;24.90;99.90;;;;;;4953865;29;20236;-58
2023/09/28 11:19:02;;;;;;;5.63;3.28;;;24.90;99.90;;;;;;4953669;29;20623;-61
2023/09/28 11:21:32;;;;;;;3.57;2.47;;;24.90;99.90;;;;;;4953275;29;20220;-59
2023/09/28 11:24:02;;;;;;;6.33;3.33;;;24.80;99.90;;;;;;4953441;29;20213;-60
2023/09/28 11:26:30;;;;;;;5.80;2.97;;;24.80;99.90;;;;;;4953609;29;20257;-59
2023/09/28 11:28:58;;;;;;;5.63;2.00;;;24.80;99.90;;;;;;4953761;29;20284;-58
2023/09/28 11:31:27;;;;;;;3.10;2.80;;;24.80;99.90;;;;;;4953211;29;20204;-59
2023/09/28 11:33:58;;;;;;;4.13;2.70;;;24.70;99.90;;;;;;4953447;29;20722;-58
2023/09/28 11:36:27;;;;;;;4.13;2.20;;;24.70;99.90;;;;;;4953614;29;20312;-59
2023/09/28 11:38:56;;;;;;;2.33;2.13;;;24.60;99.90;;;;;;4953326;29;20296;-59
2023/09/28 11:41:23;;;;;;;2.70;2.47;;;24.40;99.90;;;;;;4952985;29;20205;-60
2023/09/28 11:43:53;;;;;;;3.63;2.77;;;24.40;99.90;;;;;;4953376;29;20741;-60
2023/09/28 11:46:22;;;;;;;4.27;2.50;;;24.40;99.90;;;;;;4953090;29;20858;-59
2023/09/28 11:48:49;;;;;;;2.75;2.60;;;24.40;99.90;;;;;;4953226;29;20233;-60
2023/09/28 11:51:16;;;;;;;3.20;3.00;;;24.30;99.90;;;;;;4952854;29;20234;-60
2023/09/28 11:53:44;;;;;;;4.73;2.27;;;24.20;99.90;;;;;;4952915;29;20606;-60
2023/09/28 11:56:12;;;;;;;4.13;3.10;;;24.30;99.90;;;;;;4952800;29;20212;-60
2023/09/28 11:58:39;;;;;;;2.97;2.63;;;24.30;99.90;;;;;;4952943;29;20205;-56
2023/09/28 12:01:07;;;;;;;4.27;2.10;;;24.30;99.90;;;;;;4952734;29;20213;-56
2023/09/28 12:03:34;;;;;;;3.47;2.57;;;24.20;99.90;;;;;;4953024;29;20264;-56
2023/09/28 12:06:03;;;;;;;3.37;3.13;;;24.30;99.90;;;;;;4950658;29;20208;-56
2023/09/28 12:08:30;;;;;;;3.90;3.58;;;24.30;99.90;;;;;;4950376;29;20373;-55
2023/09/28 12:10:59;;;;;;;4.57;4.17;;;24.30;99.90;;;;;;4949991;29;20686;-62
2023/09/28 12:13:27;;;;;;;4.93;4.47;;;24.30;99.90;;;;;;4952550;29;20348;-63
2023/09/28 12:15:55;;;;;;;5.20;4.80;;;24.30;99.90;;;;;;4952568;29;20213;-62
2023/09/28 12:18:23;;;;;;;4.80;4.47;;;24.30;99.90;;;;;;4951813;28;20225;-62
2023/09/28 12:20:50;;;;;;;5.30;4.80;;;24.40;99.90;;;;;;4951192;29;20212;-62
2023/09/28 12:23:18;;;;;;;5.93;5.53;;;24.20;99.90;;;;;;4951633;29;20569;-62
2023/09/28 12:25:45;;;;;;;6.60;5.30;;;24.10;99.90;;;;;;4952433;28;20260;-65
2023/09/28 12:28:12;;;;;;;5.47;4.93;;;24.20;99.90;;;;;;4952694;29;20228;-63
2023/09/28 12:30:41;;;;;;;5.33;4.83;;;24.20;99.90;;;;;;4952168;29;20264;-63
2023/09/28 12:33:09;;;;;;;3.93;3.73;;;24.30;99.90;;;;;;4952478;29;20272;-64
2023/09/28 12:35:39;;;;;;;4.27;3.93;;;24.20;99.90;;;;;;4946702;29;20243;-64
2023/09/28 12:38:07;;;;;;;4.73;4.17;;;24.10;99.90;;;;;;4951619;28;20217;-64
2023/09/28 12:40:38;;;;;;;4.90;3.47;;;24.10;99.90;;;;;;4952062;29;20260;-64
2023/09/28 12:43:05;;;;;;;4.33;4.03;;;24.00;99.90;;;;;;4952039;29;20300;-63
2023/09/28 12:45:36;;;;;;;5.73;4.07;;;24.20;99.90;;;;;;4952523;29;20208;-62
2023/09/28 12:48:06;;;;;;;5.83;5.43;;;24.20;99.90;;;;;;4950543;29;20299;-63
2023/09/28 12:50:35;;;;;;;5.90;5.33;;;24.30;99.90;;;;;;4951419;29;20294;-63
2023/09/28 12:53:02;;;;;;;8.73;5.70;;;24.30;99.90;;;;;;4949159;29;20205;-55